»·PEaware :: N638YA KPSP-KONT

N638YA :: KPSP-KONT

FLIGHT INFORMATION

Flight Status: Arrived
Operator: Privately registered:
United States
More flights under this callsign
Pilot: Eric D. (9648)
Aircraft: PIPER PA-44 SEMINOLE
(PA44)
More flights by this aircraft type
Origin: KPSP Palm Springs Intl
United States
Destination: KONT Ontario Intl
United States
More flights between these airports :: More routes between these airports
Route: +CATH1 PSP V388 PDZ
File this flight plan on PilotEdge
Remarks:
Altitude:
(Current/Filed)
10,000ft
Speed:
(Current/Filed)
140kts
Departed: 07-Jan-18 05:17 PM
Arrived: 07-Jan-18 06:00 PM
Distance/Time
Traveled:
57nm/0:43
Distance/Time
To Go:
Arrived

Flight Plot

Page will automatically refresh every two minutes.


Map Options




Map Legend


Flown Route
Filed Route
Departure Airport
Arrival Airport
Navaid (VOR, NDB)
Fix

Horizontal Profiles

Position Reports

Time Latitude Longitude Heading Altitude Ground
Speed
07-Jan-18 16:55 33.824334 -116.498000 237 428ft 0kts
07-Jan-18 16:56 33.824334 -116.498000 237 428ft 0kts
07-Jan-18 16:57 33.824334 -116.498000 237 428ft 0kts
07-Jan-18 16:58 33.824334 -116.498000 237 428ft 0kts
07-Jan-18 16:59 33.824333 -116.498001 237 428ft 0kts
07-Jan-18 17:00 33.824333 -116.498002 237 428ft 0kts
07-Jan-18 17:01 33.824333 -116.498002 237 428ft 0kts
07-Jan-18 17:02 33.824332 -116.498003 237 428ft 0kts
07-Jan-18 17:03 33.824332 -116.498004 237 428ft 0kts
07-Jan-18 17:04 33.824332 -116.498004 237 428ft 0kts
07-Jan-18 17:05 33.824331 -116.498005 237 428ft 0kts
07-Jan-18 17:06 33.824331 -116.498006 237 428ft 0kts
07-Jan-18 17:07 33.824330 -116.498006 237 428ft 0kts
07-Jan-18 17:08 33.824330 -116.498007 237 428ft 0kts
07-Jan-18 17:09 33.824330 -116.498007 237 428ft 0kts
07-Jan-18 17:10 33.824330 -116.498008 237 428ft 0kts
07-Jan-18 17:11 33.824329 -116.498009 237 428ft 0kts
07-Jan-18 17:12 33.824329 -116.498009 237 428ft 0kts
07-Jan-18 17:13 33.824329 -116.498010 237 428ft 0kts
07-Jan-18 17:14 33.823628 -116.497963 143 428ft 11kts
07-Jan-18 17:15 33.820931 -116.495593 142 428ft 8kts
07-Jan-18 17:16 33.819324 -116.497155 233 428ft 0kts
07-Jan-18 17:17 33.819324 -116.497156 233 428ft 0kts
07-Jan-18 17:18 33.819323 -116.497157 233 428ft 0kts
07-Jan-18 17:19 33.819322 -116.497158 233 428ft 0kts
07-Jan-18 17:20 33.819322 -116.497159 233 428ft 0kts
07-Jan-18 17:21 33.819321 -116.497160 233 428ft 0kts
07-Jan-18 17:22 33.818969 -116.498042 300 428ft 6kts
07-Jan-18 17:23 33.827908 -116.505442 325 758ft 87kts
07-Jan-18 17:24 33.837222 -116.512562 326 1286ft 93kts
07-Jan-18 17:25 33.858690 -116.530540 324 2420ft 113kts
07-Jan-18 17:26 33.884828 -116.554264 323 3611ft 111kts
07-Jan-18 17:27 33.907576 -116.563377 63 4720ft 88kts
07-Jan-18 17:28 33.904216 -116.532213 112 5612ft 121kts
07-Jan-18 17:29 33.890391 -116.491832 110 6315ft 129kts
07-Jan-18 17:30 33.877149 -116.451159 111 7257ft 135kts
07-Jan-18 17:31 33.862404 -116.411375 117 8222ft 125kts
07-Jan-18 17:32 33.847165 -116.375590 117 8998ft 117kts
07-Jan-18 17:33 33.830783 -116.337101 117 9626ft 140kts
07-Jan-18 17:34 33.812609 -116.294508 118 10031ft 152kts
07-Jan-18 17:35 33.792875 -116.247816 119 10016ft 157kts
07-Jan-18 17:36 33.767491 -116.259491 283 10025ft 154kts
07-Jan-18 17:37 33.792470 -116.304406 306 10005ft 169kts
07-Jan-18 17:38 33.820533 -116.349419 305 9999ft 170kts
07-Jan-18 17:39 33.848278 -116.394590 305 10006ft 170kts
07-Jan-18 17:40 33.873499 -116.441672 285 10021ft 168kts
07-Jan-18 17:41 33.886528 -116.494904 285 10010ft 167kts
07-Jan-18 17:42 33.900048 -116.548260 285 10008ft 168kts
07-Jan-18 17:43 33.913195 -116.600145 285 10035ft 160kts
07-Jan-18 17:44 33.926290 -116.651880 285 10039ft 164kts
07-Jan-18 17:45 33.939537 -116.704304 285 10053ft 165kts
07-Jan-18 17:46 33.948187 -116.755893 265 10084ft 154kts
07-Jan-18 17:47 33.946182 -116.807433 266 10099ft 152kts
07-Jan-18 17:48 33.944317 -116.858848 266 10097ft 156kts
07-Jan-18 17:49 33.942355 -116.912950 266 10060ft 166kts
07-Jan-18 17:50 33.940396 -116.966086 266 10071ft 155kts
07-Jan-18 17:51 33.938344 -117.021264 266 9692ft 175kts
07-Jan-18 17:52 33.936146 -117.080011 266 9186ft 174kts
07-Jan-18 17:53 33.949710 -117.133660 302 8717ft 173kts
07-Jan-18 17:54 33.975745 -117.181929 302 7795ft 172kts
07-Jan-18 17:55 34.000858 -117.228757 302 6786ft 163kts
07-Jan-18 17:56 34.025822 -117.275066 303 5790ft 164kts
07-Jan-18 17:57 34.049077 -117.318264 302 4771ft 146kts
07-Jan-18 17:58 34.055306 -117.362505 267 4022ft 118kts
07-Jan-18 17:59 34.054527 -117.397510 270 3896ft 99kts
07-Jan-18 18:00 34.055521 -117.430393 274 3485ft 96kts
07-Jan-18 18:01 34.055436 -117.461984 270 3094ft 92kts
07-Jan-18 18:02 34.054948 -117.492866 269 2549ft 90kts
07-Jan-18 18:03 34.054983 -117.523414 270 1985ft 89kts
07-Jan-18 18:04 34.055331 -117.553333 266 1468ft 88kts
07-Jan-18 18:05 34.055030 -117.578127 268 1072ft 87kts
07-Jan-18 18:06 34.054951 -117.598734 277 947ft 15kts
07-Jan-18 18:07 34.054597 -117.602048 225 947ft 10kts
07-Jan-18 18:08 34.054441 -117.602251 228 947ft 0kts
07-Jan-18 18:09 34.053874 -117.603739 270 947ft 10kts
07-Jan-18 18:10 34.053875 -117.608995 268 947ft 16kts
07-Jan-18 18:11 34.053107 -117.612853 185 947ft 10kts
07-Jan-18 18:12 34.052654 -117.613417 1 947ft 0kts
07-Jan-18 18:13 34.052654 -117.613417 1 947ft 0kts

Navigation Log

Ident Type
1. KPSP Airport
2. PSP Navaid
3. DEWAY Fix
4. ACINS Fix
5. LENHO Fix
6. KNDAL Fix
7. PDZ Navaid
8. KONT Airport